sensor_id;sensor_type;location;lat;lon;timestamp;pressure;altitude;pressure_sealevel;temperature;humidity
65304;BME280;51911;53.330;-1.466;2024-01-25T00:02:07;100412.86;;;26.39;21.85
65304;BME280;51911;53.330;-1.466;2024-01-25T00:06:43;100413.79;;;26.26;21.88
65304;BME280;51911;53.330;-1.466;2024-01-25T00:11:20;100408.06;;;25.82;21.97
65304;BME280;51911;53.330;-1.466;2024-01-25T00:15:57;100418.30;;;26.02;22.13
65304;BME280;51911;53.330;-1.466;2024-01-25T00:20:33;100437.32;;;26.40;22.15
65304;BME280;51911;53.330;-1.466;2024-01-25T00:25:10;100430.80;;;26.35;22.14
65304;BME280;51911;53.330;-1.466;2024-01-25T00:29:46;100414.80;;;26.43;21.98
65304;BME280;51911;53.330;-1.466;2024-01-25T00:34:23;100400.02;;;26.27;21.99
65304;BME280;51911;53.330;-1.466;2024-01-25T00:39:05;100403.72;;;26.13;22.00
65304;BME280;51911;53.330;-1.466;2024-01-25T00:43:46;100396.47;;;25.82;21.89
65304;BME280;51911;53.330;-1.466;2024-01-25T00:48:28;100391.77;;;26.12;21.87
65304;BME280;51911;53.330;-1.466;2024-01-25T00:53:09;100382.64;;;25.99;21.88
65304;BME280;51911;53.330;-1.466;2024-01-25T00:57:51;100377.17;;;26.09;21.75
65304;BME280;51911;53.330;-1.466;2024-01-25T01:02:35;100371.39;;;25.95;21.76
65304;BME280;51911;53.330;-1.466;2024-01-25T01:07:15;100360.53;;;25.89;21.75
65304;BME280;51911;53.330;-1.466;2024-01-25T01:11:55;100352.13;;;25.83;21.74
65304;BME280;51911;53.330;-1.466;2024-01-25T01:16:31;100351.20;;;25.82;21.67
65304;BME280;51911;53.330;-1.466;2024-01-25T01:21:08;100357.19;;;25.44;21.65
65304;BME280;51911;53.330;-1.466;2024-01-25T01:25:45;100355.14;;;25.67;21.70
65304;BME280;51911;53.330;-1.466;2024-01-25T01:30:21;100355.38;;;25.77;21.60
65304;BME280;51911;53.330;-1.466;2024-01-25T01:35:05;100344.52;;;25.67;21.61
65304;BME280;51911;53.330;-1.466;2024-01-25T01:39:44;100341.01;;;25.70;21.56
65304;BME280;51911;53.330;-1.466;2024-01-25T01:44:21;100330.67;;;25.70;21.50
65304;BME280;51911;53.330;-1.466;2024-01-25T01:48:58;100320.60;;;25.58;21.54
65304;BME280;51911;53.330;-1.466;2024-01-25T01:53:40;100326.35;;;25.44;21.52
65304;BME280;51911;53.330;-1.466;2024-01-25T01:58:22;100328.11;;;25.63;21.41
65304;BME280;51911;53.330;-1.466;2024-01-25T02:03:03;100318.96;;;25.62;21.36
65304;BME280;51911;53.330;-1.466;2024-01-25T02:07:44;100298.77;;;25.52;21.38
65304;BME280;51911;53.330;-1.466;2024-01-25T02:12:25;100283.84;;;25.42;21.41
65304;BME280;51911;53.330;-1.466;2024-01-25T02:17:02;100275.66;;;25.54;21.29
65304;BME280;51911;53.330;-1.466;2024-01-25T02:21:44;100293.17;;;25.43;21.32
65304;BME280;51911;53.330;-1.466;2024-01-25T02:26:25;100295.89;;;25.71;21.32
65304;BME280;51911;53.330;-1.466;2024-01-25T02:31:03;100309.76;;;25.42;21.25
65304;BME280;51911;53.330;-1.466;2024-01-25T02:35:43;100310.03;;;25.33;21.23
65304;BME280;51911;53.330;-1.466;2024-01-25T02:40:19;100299.76;;;25.26;21.23
65304;BME280;51911;53.330;-1.466;2024-01-25T02:44:56;100296.52;;;25.21;21.23
65304;BME280;51911;53.330;-1.466;2024-01-25T02:49:33;100288.39;;;25.65;21.12
65304;BME280;51911;53.330;-1.466;2024-01-25T02:54:09;100280.69;;;25.20;21.18
65304;BME280;51911;53.330;-1.466;2024-01-25T02:58:51;100265.96;;;25.15;21.17
65304;BME280;51911;53.330;-1.466;2024-01-25T03:03:27;100263.37;;;25.89;21.10
65304;BME280;51911;53.330;-1.466;2024-01-25T03:08:04;100251.76;;;25.33;21.19
65304;BME280;51911;53.330;-1.466;2024-01-25T03:12:45;100237.07;;;25.38;21.14
65304;BME280;51911;53.330;-1.466;2024-01-25T03:17:22;100230.81;;;25.71;21.11
65304;BME280;51911;53.330;-1.466;2024-01-25T03:22:03;100229.40;;;25.42;21.05
65304;BME280;51911;53.330;-1.466;2024-01-25T03:26:40;100222.00;;;24.95;21.11
65304;BME280;51911;53.330;-1.466;2024-01-25T03:31:16;100221.39;;;24.88;21.13
65304;BME280;51911;53.330;-1.466;2024-01-25T03:35:52;100223.57;;;24.93;21.07
65304;BME280;51911;53.330;-1.466;2024-01-25T03:40:29;100221.04;;;24.83;21.09
65304;BME280;51911;53.330;-1.466;2024-01-25T03:45:07;100231.03;;;25.55;21.04
65304;BME280;51911;53.330;-1.466;2024-01-25T03:49:47;100229.57;;;24.77;21.06
65304;BME280;51911;53.330;-1.466;2024-01-25T03:54:29;100224.69;;;25.10;21.04
65304;BME280;51911;53.330;-1.466;2024-01-25T03:59:10;100210.66;;;25.43;21.00
65304;BME280;51911;53.330;-1.466;2024-01-25T04:03:47;100188.08;;;24.71;21.02
65304;BME280;51911;53.330;-1.466;2024-01-25T04:08:23;100182.18;;;25.50;20.89
65304;BME280;51911;53.330;-1.466;2024-01-25T04:13:00;100186.93;;;25.39;20.95
65304;BME280;51911;53.330;-1.466;2024-01-25T04:17:36;100186.70;;;25.24;21.02
65304;BME280;51911;53.330;-1.466;2024-01-25T04:22:13;100185.93;;;25.31;20.96
65304;BME280;51911;53.330;-1.466;2024-01-25T04:26:49;100180.58;;;25.22;20.99
65304;BME280;51911;53.330;-1.466;2024-01-25T04:31:26;100160.15;;;25.21;20.98
65304;BME280;51911;53.330;-1.466;2024-01-25T04:36:07;100142.67;;;25.22;20.94
65304;BME280;51911;53.330;-1.466;2024-01-25T04:40:44;100135.56;;;24.94;20.88
65304;BME280;51911;53.330;-1.466;2024-01-25T04:45:20;100136.37;;;25.13;20.96
65304;BME280;51911;53.330;-1.466;2024-01-25T04:49:57;100123.58;;;25.08;20.97
65304;BME280;51911;53.330;-1.466;2024-01-25T04:54:34;100118.13;;;25.24;20.82
65304;BME280;51911;53.330;-1.466;2024-01-25T04:59:15;100117.87;;;25.11;20.91
65304;BME280;51911;53.330;-1.466;2024-01-25T05:03:51;100120.96;;;25.03;20.93
65304;BME280;51911;53.330;-1.466;2024-01-25T05:08:28;100124.24;;;25.10;20.87
65304;BME280;51911;53.330;-1.466;2024-01-25T05:13:04;100120.05;;;25.01;20.90
65304;BME280;51911;53.330;-1.466;2024-01-25T05:17:41;100109.60;;;24.95;20.92
65304;BME280;51911;53.330;-1.466;2024-01-25T05:22:23;100105.27;;;24.94;20.90
65304;BME280;51911;53.330;-1.466;2024-01-25T05:27:04;100106.66;;;25.01;20.83
65304;BME280;51911;53.330;-1.466;2024-01-25T05:31:45;100095.65;;;24.86;20.91
65304;BME280;51911;53.330;-1.466;2024-01-25T05:36:22;100088.02;;;24.81;20.92
65304;BME280;51911;53.330;-1.466;2024-01-25T05:40:58;100084.44;;;25.03;20.76
65304;BME280;51911;53.330;-1.466;2024-01-25T05:45:35;100080.97;;;24.85;20.86
65304;BME280;51911;53.330;-1.466;2024-01-25T05:50:11;100070.18;;;25.18;20.90
65304;BME280;51911;53.330;-1.466;2024-01-25T05:54:48;100069.00;;;24.84;20.84
65304;BME280;51911;53.330;-1.466;2024-01-25T05:59:24;100060.47;;;25.14;20.89
65304;BME280;51911;53.330;-1.466;2024-01-25T06:04:01;100056.13;;;24.66;20.94
65304;BME280;51911;53.330;-1.466;2024-01-25T06:08:37;100072.94;;;24.63;21.01
65304;BME280;51911;53.330;-1.466;2024-01-25T06:13:14;100066.04;;;24.73;20.97
65304;BME280;51911;53.330;-1.466;2024-01-25T06:17:51;100054.57;;;24.55;21.06
65304;BME280;51911;53.330;-1.466;2024-01-25T06:22:27;100056.93;;;24.60;21.01
65304;BME280;51911;53.330;-1.466;2024-01-25T06:27:09;100048.43;;;24.81;20.86
65304;BME280;51911;53.330;-1.466;2024-01-25T06:31:50;100040.10;;;24.63;20.95
65304;BME280;51911;53.330;-1.466;2024-01-25T06:36:27;100033.92;;;24.54;20.99
65304;BME280;51911;53.330;-1.466;2024-01-25T06:41:03;100027.62;;;24.57;20.97
65304;BME280;51911;53.330;-1.466;2024-01-25T06:45:45;100008.91;;;24.53;20.96
65304;BME280;51911;53.330;-1.466;2024-01-25T06:50:26;100014.54;;;24.89;21.04
65304;BME280;51911;53.330;-1.466;2024-01-25T06:55:03;100004.15;;;24.99;21.00
65304;BME280;51911;53.330;-1.466;2024-01-25T06:59:44;100000.74;;;24.62;20.97
65304;BME280;51911;53.330;-1.466;2024-01-25T07:04:21;99993.88;;;24.50;21.10
65304;BME280;51911;53.330;-1.466;2024-01-25T07:08:57;99990.09;;;24.38;21.24
65304;BME280;51911;53.330;-1.466;2024-01-25T07:13:34;99984.94;;;24.45;21.13
65304;BME280;51911;53.330;-1.466;2024-01-25T07:18:15;99984.02;;;24.73;21.14
65304;BME280;51911;53.330;-1.466;2024-01-25T07:22:52;99983.72;;;24.40;21.08
65304;BME280;51911;53.330;-1.466;2024-01-25T07:27:29;99975.25;;;24.33;21.09
65304;BME280;51911;53.330;-1.466;2024-01-25T07:32:10;99972.79;;;24.35;21.07
65304;BME280;51911;53.330;-1.466;2024-01-25T07:36:47;99967.54;;;24.68;21.12
65304;BME280;51911;53.330;-1.466;2024-01-25T07:41:28;99957.01;;;24.70;21.11
65304;BME280;51911;53.330;-1.466;2024-01-25T07:46:04;99957.43;;;24.75;21.07
65304;BME280;51911;53.330;-1.466;2024-01-25T07:50:41;99954.23;;;24.23;21.20
65304;BME280;51911;53.330;-1.466;2024-01-25T07:55:23;99939.93;;;24.13;21.39
65304;BME280;51911;53.330;-1.466;2024-01-25T07:59:59;99933.74;;;24.64;21.35
65304;BME280;51911;53.330;-1.466;2024-01-25T08:04:36;99931.15;;;24.19;21.43
65304;BME280;51911;53.330;-1.466;2024-01-25T08:09:12;99923.14;;;24.57;21.46
65304;BME280;51911;53.330;-1.466;2024-01-25T08:13:53;99915.95;;;24.15;21.52
65304;BME280;51911;53.330;-1.466;2024-01-25T08:18:30;99917.39;;;24.12;21.55
65304;BME280;51911;53.330;-1.466;2024-01-25T08:23:06;99914.46;;;24.12;21.55
65304;BME280;51911;53.330;-1.466;2024-01-25T08:27:43;99918.08;;;24.45;21.63
65304;BME280;51911;53.330;-1.466;2024-01-25T08:32:19;99914.20;;;24.52;21.66
65304;BME280;51911;53.330;-1.466;2024-01-25T08:36:56;99909.52;;;24.06;21.79
65304;BME280;51911;53.330;-1.466;2024-01-25T08:41:33;99907.02;;;24.18;21.78
65304;BME280;51911;53.330;-1.466;2024-01-25T08:46:14;99905.31;;;24.54;21.84
65304;BME280;51911;53.330;-1.466;2024-01-25T08:50:56;99903.23;;;24.40;21.97
65304;BME280;51911;53.330;-1.466;2024-01-25T08:55:37;99900.05;;;24.48;21.95
65304;BME280;51911;53.330;-1.466;2024-01-25T09:00:15;99898.57;;;24.07;22.06
65304;BME280;51911;53.330;-1.466;2024-01-25T09:04:56;99892.02;;;24.34;22.23
65304;BME280;51911;53.330;-1.466;2024-01-25T09:09:37;99881.34;;;23.96;22.30
65304;BME280;51911;53.330;-1.466;2024-01-25T09:14:18;99879.62;;;23.61;22.66
65304;BME280;51911;53.330;-1.466;2024-01-25T09:18:55;99883.84;;;24.07;23.04
65304;BME280;51911;53.330;-1.466;2024-01-25T09:23:31;99874.46;;;23.34;23.49
65304;BME280;51911;53.330;-1.466;2024-01-25T09:28:08;99857.87;;;23.54;23.45
65304;BME280;51911;53.330;-1.466;2024-01-25T09:32:44;99856.39;;;23.43;23.54
65304;BME280;51911;53.330;-1.466;2024-01-25T09:37:21;99853.42;;;23.08;23.49
65304;BME280;51911;53.330;-1.466;2024-01-25T09:41:58;99860.43;;;23.57;23.40
65304;BME280;51911;53.330;-1.466;2024-01-25T09:46:40;99861.66;;;22.54;23.78
65304;BME280;51911;53.330;-1.466;2024-01-25T09:51:20;99855.32;;;23.44;23.62
65304;BME280;51911;53.330;-1.466;2024-01-25T09:56:06;99860.72;;;23.14;23.41
65304;BME280;51911;53.330;-1.466;2024-01-25T10:00:44;99863.21;;;23.75;23.24
65304;BME280;51911;53.330;-1.466;2024-01-25T10:05:20;99862.54;;;24.13;22.98
65304;BME280;51911;53.330;-1.466;2024-01-25T10:09:57;99858.20;;;23.84;22.93
65304;BME280;51911;53.330;-1.466;2024-01-25T10:14:33;99854.72;;;24.02;22.83
65304;BME280;51911;53.330;-1.466;2024-01-25T10:19:15;99843.58;;;24.29;22.68
65304;BME280;51911;53.330;-1.466;2024-01-25T10:23:57;99842.11;;;24.35;22.63
65304;BME280;51911;53.330;-1.466;2024-01-25T10:28:38;99843.43;;;24.40;22.62
65304;BME280;51911;53.330;-1.466;2024-01-25T10:33:15;99844.09;;;23.87;22.85
65304;BME280;51911;53.330;-1.466;2024-01-25T10:37:56;99840.00;;;24.83;22.74
65304;BME280;51911;53.330;-1.466;2024-01-25T10:42:33;99831.46;;;24.79;22.75
65304;BME280;51911;53.330;-1.466;2024-01-25T10:47:09;99827.39;;;24.99;22.62
65304;BME280;51911;53.330;-1.466;2024-01-25T10:51:51;99820.60;;;24.64;22.59
65304;BME280;51911;53.330;-1.466;2024-01-25T10:56:34;99814.22;;;24.23;22.84
65304;BME280;51911;53.330;-1.466;2024-01-25T11:01:14;99799.45;;;23.95;23.21
65304;BME280;51911;53.330;-1.466;2024-01-25T11:06:05;99796.83;;;23.69;23.54
65304;BME280;51911;53.330;-1.466;2024-01-25T11:10:42;99784.94;;;23.72;23.58
65304;BME280;51911;53.330;-1.466;2024-01-25T11:15:30;99778.65;;;23.76;23.59
65304;BME280;51911;53.330;-1.466;2024-01-25T11:20:13;99776.69;;;23.91;23.43
65304;BME280;51911;53.330;-1.466;2024-01-25T11:24:52;99782.24;;;24.23;23.46
65304;BME280;51911;53.330;-1.466;2024-01-25T11:29:28;99783.73;;;23.79;23.51
65304;BME280;51911;53.330;-1.466;2024-01-25T11:34:11;99773.96;;;23.52;23.25
65304;BME280;51911;53.330;-1.466;2024-01-25T11:38:52;99775.40;;;24.14;23.28
65304;BME280;51911;53.330;-1.466;2024-01-25T11:43:35;99768.22;;;24.35;23.19
65304;BME280;51911;53.330;-1.466;2024-01-25T11:48:15;99747.14;;;24.03;23.23
65304;BME280;51911;53.330;-1.466;2024-01-25T11:52:52;99737.90;;;24.45;23.29
65304;BME280;51911;53.330;-1.466;2024-01-25T11:57:36;99733.68;;;23.77;23.39
65304;BME280;51911;53.330;-1.466;2024-01-25T12:02:15;99721.93;;;23.76;24.04
65304;BME280;51911;53.330;-1.466;2024-01-25T12:06:56;99711.36;;;24.27;23.84
65304;BME280;51911;53.330;-1.466;2024-01-25T12:11:40;99690.31;;;23.88;23.89
